Time;durP1;ratioP1;P1;durP2;ratioP2;P2;SDS_P1;SDS_P2;PMS_P1;PMS_P2;Temp;Humidity;BMP_temperature;BMP_pressure;BME280_temperature;BME280_humidity;BME280_pressure;Samples;Min_cycle;Max_cycle;Signal;HPM_P1;HPM_P2
2023/12/29 00:00:27;;;;;;;0.30;0.30;;;;;;;2.73;90.04;97587.00;4987058;28;20062;-59
2023/12/29 00:02:54;;;;;;;0.30;0.30;;;;;;;2.40;89.54;97533.59;4986825;28;20061;-59
2023/12/29 00:05:20;;;;;;;0.40;0.40;;;;;;;2.69;88.61;97591.47;4986483;28;20085;-61
2023/12/29 00:07:47;;;;;;;0.40;0.40;;;;;;;2.46;87.51;97551.50;4970453;28;20161;-60
2023/12/29 00:10:14;;;;;;;0.35;0.35;;;;;;;1.91;87.43;97465.22;4986254;28;20668;-60
2023/12/29 00:12:41;;;;;;;0.40;0.40;;;;;;;2.44;88.21;97554.53;4986240;28;20060;-60
2023/12/29 00:15:08;;;;;;;0.38;0.38;;;;;;;2.57;88.51;97555.63;4986430;28;20050;-60
2023/12/29 00:17:40;;;;;;;0.40;0.40;;;;;;;1.94;88.54;97449.06;4986255;28;20061;-60
2023/12/29 00:20:08;;;;;;;0.40;0.40;;;;;;;2.73;88.86;97581.53;4986179;28;20145;-61
2023/12/29 00:22:35;;;;;;;0.40;0.40;;;;;;;2.79;89.25;97586.59;4986164;28;20062;-60
2023/12/29 00:25:02;;;;;;;0.40;0.40;;;;;;;-0.41;88.28;97102.78;4986192;28;20058;-59
2023/12/29 00:27:29;;;;;;;0.40;0.40;;;;;;;2.01;89.92;97590.69;4984760;28;20476;-59
2023/12/29 00:29:56;;;;;;;0.30;0.30;;;;;;;1.15;90.47;97460.41;4985860;28;20046;-61
2023/12/29 00:32:23;;;;;;;0.40;0.40;;;;;;;2.00;90.65;97578.94;5000697;28;20096;-59
2023/12/29 00:34:49;;;;;;;0.40;0.40;;;;;;;2.02;90.15;97586.84;4986054;28;20069;-59
2023/12/29 00:37:16;;;;;;;0.30;0.30;;;;;;;2.00;90.30;97583.59;5000801;28;20437;-60
2023/12/29 00:39:43;;;;;;;0.38;0.38;;;;;;;1.97;90.36;97585.00;4985719;28;20050;-60
2023/12/29 00:42:10;;;;;;;0.40;0.40;;;;;;;2.12;90.08;97587.44;4985138;28;20058;-60
2023/12/29 00:44:37;;;;;;;0.40;0.40;;;;;;;2.10;90.00;97591.59;4985554;28;20054;-59
2023/12/29 00:47:04;;;;;;;0.40;0.40;;;;;;;2.14;90.41;97595.34;4984096;28;20125;-58
2023/12/29 00:49:31;;;;;;;0.40;0.40;;;;;;;2.30;89.75;97586.53;4986038;28;20060;-59
2023/12/29 00:51:57;;;;;;;0.40;0.40;;;;;;;1.70;89.59;97502.22;4985732;28;20058;-61
2023/12/29 00:54:24;;;;;;;0.40;0.40;;;;;;;2.05;90.40;97586.22;4984284;28;20349;-59
2023/12/29 00:56:55;;;;;;;0.30;0.30;;;;;;;1.90;92.03;97556.50;4985834;28;20050;-59
2023/12/29 00:59:22;;;;;;;0.30;0.30;;;;;;;2.04;93.41;97579.16;4985643;28;20054;-60
2023/12/29 01:01:49;;;;;;;0.40;0.40;;;;;;;1.82;93.07;97521.69;4985603;28;20116;-59
2023/12/29 01:04:16;;;;;;;0.35;0.35;;;;;;;1.75;91.06;97548.56;4985583;28;20137;-60
2023/12/29 01:06:44;;;;;;;0.30;0.30;;;;;;;1.86;91.29;97574.56;4999727;28;20410;-60
2023/12/29 01:09:11;;;;;;;0.32;0.32;;;;;;;1.74;91.52;97552.41;4985294;28;20437;-59
2023/12/29 01:11:38;;;;;;;0.30;0.30;;;;;;;1.97;92.03;97562.34;4985437;28;20173;-60
2023/12/29 01:14:05;;;;;;;0.30;0.30;;;;;;;1.92;90.59;97537.84;4985693;28;20061;-59
2023/12/29 01:16:32;;;;;;;0.30;0.30;;;;;;;2.05;90.68;97558.91;4999915;28;20054;-60
2023/12/29 01:18:59;;;;;;;0.30;0.30;;;;;;;2.09;91.29;97543.50;4985195;28;20074;-60
2023/12/29 01:21:26;;;;;;;0.40;0.40;;;;;;;1.77;91.06;97494.47;4984665;28;20057;-60
2023/12/29 01:23:53;;;;;;;0.40;0.40;;;;;;;1.77;91.85;97491.72;4985157;28;20061;-59
2023/12/29 01:26:20;;;;;;;0.30;0.30;;;;;;;2.17;91.07;97545.53;4984844;28;20051;-60
2023/12/29 01:28:46;;;;;;;0.30;0.30;;;;;;;2.08;91.48;97541.91;4983708;28;20058;-60
2023/12/29 01:31:13;;;;;;;0.30;0.30;;;;;;;2.15;90.97;97542.31;4984830;28;20116;-62
2023/12/29 01:33:40;;;;;;;0.30;0.30;;;;;;;1.75;90.39;97474.84;4999954;28;20054;-62
2023/12/29 01:36:08;;;;;;;0.30;0.30;;;;;;;2.30;88.72;97550.19;4985227;28;21130;-59
2023/12/29 01:38:43;;;;;;;0.40;0.40;;;;;;;2.01;88.22;97542.31;4985000;28;20057;-59
2023/12/29 01:41:10;;;;;;;0.40;0.40;;;;;;;1.93;89.18;97556.66;4999833;28;20441;-60
2023/12/29 01:43:56;;;;;;;0.38;0.38;;;;;;;1.99;88.89;97543.72;4984907;28;20061;-59
2023/12/29 01:46:28;;;;;;;0.30;0.30;;;;;;;1.95;89.94;97548.16;4984695;28;20137;-60
2023/12/29 01:48:57;;;;;;;0.30;0.30;;;;;;;1.77;90.79;97521.78;4984987;28;20453;-60
2023/12/29 01:51:25;;;;;;;0.40;0.40;;;;;;;1.92;91.56;97522.28;4984341;28;20444;-58
2023/12/29 01:53:55;;;;;;;0.30;0.30;;;;;;;1.93;90.93;97520.38;4983992;28;20522;-59
2023/12/29 01:56:22;;;;;;;0.30;0.30;;;;;;;2.00;90.68;97528.94;4984586;28;20562;-59
2023/12/29 01:58:49;;;;;;;0.40;0.40;;;;;;;2.01;89.73;97520.44;4984571;28;20046;-59
2023/12/29 02:01:18;;;;;;;0.30;0.30;;;;;;;1.94;90.31;97513.78;4983342;28;20058;-60
2023/12/29 02:03:45;;;;;;;0.30;0.30;;;;;;;1.87;90.59;97491.50;4999518;28;20054;-59
2023/12/29 02:06:13;;;;;;;0.30;0.30;;;;;;;2.06;89.76;97511.34;4972498;28;20137;-61
2023/12/29 02:08:43;;;;;;;0.30;0.30;;;;;;;1.93;90.13;97501.25;4964871;28;20517;-59
2023/12/29 02:11:10;;;;;;;0.30;0.30;;;;;;;1.64;89.76;97429.75;4965256;28;20051;-59
2023/12/29 02:13:37;;;;;;;0.30;0.30;;;;;;;2.02;89.60;97505.69;4964925;28;20608;-60
2023/12/29 02:16:12;;;;;;;0.30;0.30;;;;;;;2.10;89.18;97512.38;4965193;28;20062;-60
2023/12/29 02:18:41;;;;;;;0.30;0.30;;;;;;;2.12;89.06;97504.69;4963750;28;20109;-59
2023/12/29 02:21:08;;;;;;;0.35;0.35;;;;;;;2.07;89.37;97496.59;4965463;28;20446;-59
2023/12/29 02:23:35;;;;;;;0.40;0.40;;;;;;;1.98;89.61;97476.53;4965418;28;20559;-59
2023/12/29 02:26:09;;;;;;;0.30;0.30;;;;;;;2.13;90.08;97498.09;4979872;28;20051;-60
2023/12/29 02:28:42;;;;;;;0.40;0.40;;;;;;;2.16;90.13;97494.75;4965198;28;20133;-59
2023/12/29 02:31:19;;;;;;;0.40;0.40;;;;;;;1.84;89.44;97438.31;4965183;28;20050;-60
2023/12/29 02:33:48;;;;;;;0.30;0.30;;;;;;;1.66;88.80;97414.66;4964957;28;20059;-61
2023/12/29 02:36:17;;;;;;;0.40;0.40;;;;;;;1.81;89.24;97438.13;4964933;28;20483;-59
2023/12/29 02:38:44;;;;;;;0.40;0.40;;;;;;;2.00;90.09;97490.72;4964749;28;20854;-60
2023/12/29 02:41:13;;;;;;;0.30;0.30;;;;;;;2.09;89.44;97489.69;4974917;28;20065;-60
2023/12/29 02:43:39;;;;;;;0.30;0.30;;;;;;;2.12;87.25;97482.81;4982861;28;20061;-60
2023/12/29 02:46:06;;;;;;;0.35;0.35;;;;;;;2.06;87.84;97481.28;4984309;28;20560;-60
2023/12/29 02:48:33;;;;;;;0.30;0.30;;;;;;;1.53;88.76;97416.28;4999294;28;20425;-61
2023/12/29 02:51:00;;;;;;;0.30;0.30;;;;;;;1.88;90.17;97536.84;4983953;28;20050;-62
2023/12/29 02:53:27;;;;;;;0.35;0.35;;;;;;;1.10;89.67;97341.31;4984125;28;20142;-60
2023/12/29 02:55:53;;;;;;;0.40;0.40;;;;;;;1.85;90.11;97464.50;4984253;28;20398;-60
2023/12/29 02:58:20;;;;;;;0.32;0.32;;;;;;;1.42;90.08;97382.13;4984343;28;20050;-60
2023/12/29 03:00:47;;;;;;;0.30;0.30;;;;;;;1.92;89.96;97456.72;4983871;28;20055;-60
2023/12/29 03:03:14;;;;;;;0.40;0.40;;;;;;;2.01;89.92;97467.75;4983914;28;20153;-59
2023/12/29 03:05:40;;;;;;;0.30;0.30;;;;;;;1.98;89.15;97460.16;4972004;28;20055;-61
2023/12/29 03:08:07;;;;;;;0.30;0.30;;;;;;;1.66;89.75;97432.97;4982688;28;20423;-59
2023/12/29 03:10:34;;;;;;;0.32;0.32;;;;;;;1.24;89.23;97464.88;4968386;28;20077;-59
2023/12/29 03:13:02;;;;;;;0.30;0.30;;;;;;;0.43;90.76;97344.72;4967728;28;20548;-60
2023/12/29 03:15:29;;;;;;;0.30;0.30;;;;;;;0.91;90.09;97411.47;4968201;28;20054;-61
2023/12/29 03:17:57;;;;;;;0.30;0.30;;;;;;;1.19;90.23;97469.59;4967966;28;20059;-62
2023/12/29 03:20:24;;;;;;;0.30;0.30;;;;;;;1.28;89.72;97465.88;4967727;28;20054;-61
2023/12/29 03:22:51;;;;;;;0.30;0.30;;;;;;;1.15;89.98;97469.41;4967689;28;20054;-59
2023/12/29 03:25:17;;;;;;;0.30;0.30;;;;;;;1.16;89.89;97476.47;4968355;28;20061;-59
2023/12/29 03:27:44;;;;;;;0.30;0.30;;;;;;;1.24;88.35;97467.63;4982331;28;20055;-61
2023/12/29 03:30:11;;;;;;;0.30;0.30;;;;;;;1.19;89.32;97475.88;4967558;28;20061;-59
2023/12/29 03:32:38;;;;;;;0.30;0.30;;;;;;;1.00;90.91;97434.22;4967549;28;20047;-59
2023/12/29 03:35:05;;;;;;;0.30;0.30;;;;;;;1.27;91.71;97455.28;4966146;28;20054;-58
2023/12/29 03:37:33;;;;;;;0.30;0.30;;;;;;;1.36;92.23;97453.47;4982365;28;20047;-58
2023/12/29 03:39:59;;;;;;;0.30;0.30;;;;;;;1.30;91.25;97411.84;4967900;28;20054;-59
2023/12/29 03:42:26;;;;;;;0.30;0.30;;;;;;;1.49;91.75;97448.03;4986448;28;20058;-61
2023/12/29 03:44:53;;;;;;;0.30;0.30;;;;;;;1.29;91.83;97410.22;5002056;28;20517;-62
2023/12/29 03:47:20;;;;;;;0.35;0.35;;;;;;;1.48;92.15;97430.06;4986819;28;20065;-60
2023/12/29 03:49:46;;;;;;;0.30;0.30;;;;;;;1.66;91.62;97446.63;4986486;28;20066;-61
2023/12/29 03:52:13;;;;;;;0.30;0.30;;;;;;;1.39;91.37;97445.50;4984921;28;20076;-60
2023/12/29 03:54:40;;;;;;;0.30;0.30;;;;;;;1.28;90.44;97446.78;4980927;28;20062;-59
2023/12/29 03:57:07;;;;;;;0.30;0.30;;;;;;;0.91;89.26;97391.56;4986674;28;20073;-60
2023/12/29 03:59:37;;;;;;;0.32;0.32;;;;;;;1.16;87.61;97427.38;4986560;28;20057;-60
2023/12/29 04:02:04;;;;;;;0.30;0.30;;;;;;;-0.53;87.90;97170.44;4970023;28;20054;-60
2023/12/29 04:04:31;;;;;;;0.30;0.30;;;;;;;0.84;87.17;97389.22;4967494;28;20581;-59
2023/12/29 04:06:58;;;;;;;0.30;0.30;;;;;;;1.19;87.80;97448.59;4966784;28;20055;-60
2023/12/29 04:09:25;;;;;;;0.30;0.30;;;;;;;0.83;89.04;97384.91;4967456;28;20322;-59
2023/12/29 04:11:51;;;;;;;0.30;0.30;;;;;;;1.19;89.92;97448.59;4967412;28;20462;-60
2023/12/29 04:14:18;;;;;;;0.30;0.30;;;;;;;1.10;91.03;97453.13;4966730;28;20054;-59
2023/12/29 04:16:45;;;;;;;0.30;0.30;;;;;;;1.19;91.15;97442.31;4966629;28;20066;-59
2023/12/29 04:19:12;;;;;;;0.30;0.30;;;;;;;1.20;90.67;97428.38;4965465;28;20055;-60
2023/12/29 04:21:41;;;;;;;0.30;0.30;;;;;;;1.12;90.45;97456.34;4966872;28;20201;-58
2023/12/29 04:24:08;;;;;;;0.30;0.30;;;;;;;1.11;90.64;97438.38;4967046;28;20183;-58
2023/12/29 04:26:36;;;;;;;0.30;0.30;;;;;;;0.67;91.04;97375.38;4966808;28;20438;-58
2023/12/29 04:29:03;;;;;;;0.30;0.30;;;;;;;1.05;90.92;97434.13;4967164;28;20087;-60
2023/12/29 04:31:30;;;;;;;0.30;0.30;;;;;;;1.15;89.78;97447.59;4967035;28;20133;-59
2023/12/29 04:33:57;;;;;;;0.30;0.30;;;;;;;0.78;89.81;97371.34;4981794;28;20053;-59
2023/12/29 04:36:24;;;;;;;0.30;0.30;;;;;;;1.16;90.15;97445.66;4966563;28;20165;-60
2023/12/29 04:38:50;;;;;;;0.35;0.35;;;;;;;1.19;91.26;97437.69;4967107;28;20160;-59
2023/12/29 04:41:17;;;;;;;0.30;0.30;;;;;;;1.15;91.08;97442.16;4971918;28;20064;-59
2023/12/29 04:43:44;;;;;;;0.30;0.30;;;;;;;1.29;91.12;97440.25;5000686;28;20061;-61
2023/12/29 04:46:10;;;;;;;0.30;0.30;;;;;;;0.76;90.73;97359.94;4985816;28;20073;-59
2023/12/29 04:48:37;;;;;;;0.30;0.30;;;;;;;0.92;89.85;97399.44;4985738;28;20054;-60
2023/12/29 04:51:04;;;;;;;0.30;0.30;;;;;;;1.14;89.53;97428.78;4985525;28;20043;-59
2023/12/29 04:53:31;;;;;;;0.32;0.32;;;;;;;0.97;88.90;97420.38;4985489;28;20153;-59
2023/12/29 04:55:58;;;;;;;0.30;0.30;;;;;;;0.46;88.50;97474.88;4985763;28;20054;-59
2023/12/29 04:58:24;;;;;;;0.30;0.30;;;;;;;0.74;89.04;97408.50;4985974;28;20504;-58
2023/12/29 05:00:51;;;;;;;0.30;0.30;;;;;;;1.01;88.05;97446.72;4985239;28;20521;-59
2023/12/29 05:03:18;;;;;;;0.30;0.30;;;;;;;1.20;87.98;97455.66;5000151;28;20061;-59
2023/12/29 05:05:45;;;;;;;0.30;0.30;;;;;;;0.56;88.56;97363.00;4985443;28;20046;-59
2023/12/29 05:08:11;;;;;;;0.30;0.30;;;;;;;1.11;89.12;97430.19;4985407;28;20308;-60
2023/12/29 05:10:38;;;;;;;0.30;0.30;;;;;;;1.15;89.61;97442.16;4985564;28;20056;-60
2023/12/29 05:13:05;;;;;;;0.30;0.30;;;;;;;0.31;90.84;97330.75;4985514;28;20054;-59
2023/12/29 05:15:32;;;;;;;0.30;0.30;;;;;;;0.72;91.04;97374.47;4985100;28;20050;-60
2023/12/29 05:17:58;;;;;;;0.30;0.30;;;;;;;1.13;91.67;97444.34;4985070;28;20050;-62
2023/12/29 05:20:26;;;;;;;0.30;0.30;;;;;;;0.92;91.97;97388.53;4983927;28;20053;-60
2023/12/29 05:22:53;;;;;;;0.30;0.30;;;;;;;1.24;92.07;97434.88;4985255;28;20077;-60
2023/12/29 05:25:21;;;;;;;0.30;0.30;;;;;;;1.39;91.75;97431.06;4985184;28;20197;-60
2023/12/29 05:27:48;;;;;;;0.30;0.30;;;;;;;1.42;91.41;97427.72;4985358;28;20142;-60
2023/12/29 05:30:15;;;;;;;0.40;0.40;;;;;;;1.20;90.35;97427.59;4984843;28;20046;-60
2023/12/29 05:32:42;;;;;;;0.30;0.30;;;;;;;0.88;89.25;97409.34;4985050;28;20054;-59
2023/12/29 05:35:09;;;;;;;0.30;0.30;;;;;;;0.96;89.21;97432.38;4999395;28;20089;-58
2023/12/29 05:37:36;;;;;;;0.30;0.30;;;;;;;0.74;89.59;97411.25;4985381;28;20050;-58
2023/12/29 05:40:03;;;;;;;0.30;0.30;;;;;;;0.93;88.85;97428.31;4996992;28;20054;-60
2023/12/29 05:42:30;;;;;;;0.30;0.30;;;;;;;0.95;88.60;97434.28;4994953;28;20053;-59
2023/12/29 05:44:57;;;;;;;0.30;0.30;;;;;;;0.51;87.96;97365.81;4983122;28;20062;-59
2023/12/29 05:47:24;;;;;;;0.30;0.30;;;;;;;0.84;87.92;97421.94;4984851;28;20065;-60
2023/12/29 05:49:51;;;;;;;0.30;0.30;;;;;;;0.79;88.76;97435.66;4985135;28;20054;-59
2023/12/29 05:52:17;;;;;;;0.30;0.30;;;;;;;0.83;88.49;97439.44;4984627;28;20069;-60
2023/12/29 05:54:44;;;;;;;0.30;0.30;;;;;;;0.86;88.70;97447.00;4984971;28;20081;-61
2023/12/29 05:57:13;;;;;;;0.30;0.30;;;;;;;0.75;89.37;97437.38;4998857;28;20130;-59
2023/12/29 05:59:40;;;;;;;0.30;0.30;;;;;;;0.95;89.82;97458.84;4984035;28;20057;-60
2023/12/29 06:02:06;;;;;;;0.30;0.30;;;;;;;0.93;89.94;97455.59;4998908;28;20054;-62
2023/12/29 06:04:33;;;;;;;0.30;0.30;;;;;;;0.89;91.58;97456.50;4998813;28;20050;-58
2023/12/29 06:07:00;;;;;;;0.30;0.30;;;;;;;0.30;92.12;97342.72;4983430;28;20050;-59
2023/12/29 06:09:27;;;;;;;0.30;0.30;;;;;;;1.05;92.87;97450.50;4999143;28;20142;-58
2023/12/29 06:11:54;;;;;;;0.30;0.30;;;;;;;1.11;92.29;97441.09;4984498;28;20060;-60
2023/12/29 06:14:21;;;;;;;0.30;0.30;;;;;;;1.10;92.35;97450.41;4984803;28;20054;-59
2023/12/29 06:16:48;;;;;;;0.30;0.30;;;;;;;1.21;92.36;97451.84;4984727;28;20126;-58
2023/12/29 06:19:15;;;;;;;0.30;0.30;;;;;;;1.03;91.56;97425.44;4984745;28;20082;-58
2023/12/29 06:21:43;;;;;;;0.30;0.30;;;;;;;0.90;91.55;97377.13;4984676;28;20069;-59
2023/12/29 06:24:11;;;;;;;0.30;0.30;;;;;;;1.53;91.08;97456.44;4983144;28;20144;-59
2023/12/29 06:26:43;;;;;;;0.30;0.30;;;;;;;1.68;91.11;97444.38;4984172;28;20496;-60
2023/12/29 06:29:10;;;;;;;0.30;0.30;;;;;;;1.79;90.19;97429.44;4984275;28;20046;-61
2023/12/29 06:31:41;;;;;;;0.30;0.30;;;;;;;1.88;89.61;97438.53;4983454;28;20058;-61
2023/12/29 06:34:09;;;;;;;0.30;0.30;;;;;;;1.82;89.69;97423.38;4996561;28;20438;-62
2023/12/29 06:36:36;;;;;;;0.30;0.30;;;;;;;1.04;89.04;97399.75;4983624;28;20077;-63
2023/12/29 06:39:03;;;;;;;0.30;0.30;;;;;;;0.84;90.93;97457.38;4983691;28;20050;-63
2023/12/29 06:41:30;;;;;;;0.30;0.30;;;;;;;0.16;93.69;97467.16;5000153;28;20090;-64
2023/12/29 06:43:57;;;;;;;0.30;0.30;;;;;;;-0.08;96.69;97460.97;4989829;28;20101;-63
2023/12/29 06:46:24;;;;;;;0.30;0.30;;;;;;;-0.22;97.04;97384.66;4984235;28;20058;-61
2023/12/29 06:48:50;;;;;;;0.30;0.30;;;;;;;0.36;95.66;97406.94;4986540;28;20050;-65
2023/12/29 06:51:18;;;;;;;0.30;0.30;;;;;;;0.36;94.04;97336.13;4987328;28;20058;-63
2023/12/29 06:53:47;;;;;;;0.30;0.30;;;;;;;0.95;91.90;97377.03;4983356;28;20527;-66
2023/12/29 06:56:20;;;;;;;0.30;0.30;;;;;;;1.61;91.51;97465.84;5001280;28;20054;-62
2023/12/29 06:58:47;;;;;;;0.40;0.40;;;;;;;0.76;89.50;97324.50;4998270;28;20085;-66
2023/12/29 07:01:13;;;;;;;0.30;0.30;;;;;;;0.40;89.66;97315.34;4967437;28;20628;-61
2023/12/29 07:03:41;;;;;;;0.30;0.30;;;;;;;-0.29;88.50;97139.28;4976788;28;20064;-63
2023/12/29 07:06:09;;;;;;;0.30;0.30;;;;;;;2.06;88.22;97462.16;4970885;28;20046;-64
2023/12/29 07:08:36;;;;;;;0.38;0.38;;;;;;;2.15;87.58;97441.22;4966946;28;20058;-63
2023/12/29 07:11:03;;;;;;;0.30;0.30;;;;;;;2.53;87.45;97456.22;4980132;28;20050;-64
2023/12/29 07:13:29;;;;;;;0.30;0.30;;;;;;;2.89;86.64;97465.19;4986858;28;20046;-65
2023/12/29 07:15:57;;;;;;;0.40;0.40;;;;;;;2.84;86.20;97407.88;4985334;28;20046;-61
2023/12/29 07:18:23;;;;;;;0.40;0.40;;;;;;;3.15;83.07;97444.28;4986131;28;20112;-60
2023/12/29 07:20:52;;;;;;;0.40;0.40;;;;;;;3.59;83.74;97463.34;4987900;28;20132;-66
2023/12/29 07:23:19;;;;;;;0.30;0.30;;;;;;;3.19;82.27;97387.78;4986533;28;20054;-69
2023/12/29 07:25:47;;;;;;;0.40;0.40;;;;;;;3.93;81.62;97413.38;4980102;28;20058;-60
2023/12/29 07:28:14;;;;;;;0.40;0.40;;;;;;;3.94;81.72;97380.16;4976599;28;20333;-62
2023/12/29 07:30:41;;;;;;;0.50;0.50;;;;;;;3.86;80.82;97342.59;4982242;28;20050;-69
2023/12/29 07:33:08;;;;;;;0.50;0.50;;;;;;;4.68;79.87;97451.38;4967038;28;20062;-67
2023/12/29 07:35:35;;;;;;;0.40;0.40;;;;;;;4.15;79.95;97329.09;4984717;28;20549;-65
2023/12/29 07:38:02;;;;;;;0.40;0.40;;;;;;;5.31;79.24;97440.50;4985651;28;20531;-64
2023/12/29 07:40:29;;;;;;;0.50;0.50;;;;;;;5.55;79.50;97448.97;4984338;28;20670;-69
2023/12/29 07:42:56;;;;;;;0.50;0.50;;;;;;;5.28;78.52;97364.25;4987147;28;20062;-71
2023/12/29 07:45:23;;;;;;;0.50;0.50;;;;;;;6.08;78.75;97430.84;4982764;28;20579;-69
2023/12/29 07:47:49;;;;;;;0.50;0.50;;;;;;;5.38;75.79;97366.63;4975328;28;20058;-67
2023/12/29 07:50:16;;;;;;;0.50;0.50;;;;;;;5.45;76.67;97432.88;4982766;28;20129;-65
2023/12/29 07:52:44;;;;;;;0.50;0.50;;;;;;;4.52;77.28;97344.88;4999039;28;20532;-76
2023/12/29 07:55:11;;;;;;;0.50;0.50;;;;;;;5.26;79.22;97451.66;4984283;28;20046;-66
2023/12/29 07:57:38;;;;;;;0.50;0.50;;;;;;;5.43;78.97;97440.63;4983935;28;20137;-72
2023/12/29 08:00:06;;;;;;;0.50;0.50;;;;;;;5.82;78.34;97443.09;4984791;28;20141;-66
2023/12/29 08:02:33;;;;;;;0.50;0.50;;;;;;;5.47;75.61;97370.94;4966165;28;20129;-67
2023/12/29 08:04:59;;;;;;;0.50;0.50;;;;;;;5.95;74.80;97376.09;4984177;28;20043;-68
2023/12/29 08:07:26;;;;;;;0.50;0.50;;;;;;;5.63;75.20;97269.53;4983732;28;20058;-66
2023/12/29 08:09:53;;;;;;;0.50;0.50;;;;;;;6.67;73.89;97387.53;4998860;28;20053;-63
2023/12/29 08:12:20;;;;;;;0.60;0.60;;;;;;;7.23;72.16;97439.19;4993261;28;20571;-63
2023/12/29 08:14:46;;;;;;;0.60;0.60;;;;;;;6.47;71.87;97256.28;4982332;28;20153;-63
2023/12/29 08:17:13;;;;;;;0.60;0.60;;;;;;;6.58;71.76;97307.00;4981182;28;20050;-62
2023/12/29 08:19:40;;;;;;;0.60;0.60;;;;;;;7.54;71.69;97387.13;4966185;28;20498;-62
2023/12/29 08:22:07;;;;;;;0.60;0.60;;;;;;;7.97;69.47;97402.31;4981350;28;20062;-66
2023/12/29 08:24:34;;;;;;;0.70;0.70;;;;;;;8.11;69.73;97405.56;4975394;28;20169;-64
2023/12/29 08:27:03;;;;;;;0.70;0.70;;;;;;;7.64;67.58;97328.81;4983424;28;20077;-66
2023/12/29 08:29:30;;;;;;;0.70;0.70;;;;;;;6.09;66.45;97030.19;4984200;28;20046;-62
2023/12/29 08:31:56;;;;;;;0.70;0.70;;;;;;;8.44;66.91;97401.53;4984886;28;20050;-62
2023/12/29 08:34:23;;;;;;;0.70;0.70;;;;;;;8.44;67.19;97362.09;4984413;28;20539;-62
2023/12/29 08:36:53;;;;;;;0.70;0.70;;;;;;;9.02;66.71;97423.03;4976235;28;20108;-62
2023/12/29 08:39:20;;;;;;;0.77;0.77;;;;;;;8.69;66.79;97342.31;4985137;28;20134;-61
2023/12/29 08:41:49;;;;;;;0.80;0.80;;;;;;;9.45;65.75;97413.97;4995937;28;20444;-66
2023/12/29 08:44:16;;;;;;;0.80;0.80;;;;;;;8.90;65.75;97303.44;4993954;28;20046;-74
2023/12/29 08:46:43;;;;;;;0.73;0.73;;;;;;;7.91;64.36;97100.34;5003132;28;20050;-70
2023/12/29 08:49:10;;;;;;;0.80;0.80;;;;;;;9.77;62.80;97360.25;4982572;28;20086;-62
2023/12/29 08:51:36;;;;;;;0.90;0.90;;;;;;;9.92;61.81;97373.31;4999833;28;20050;-65
2023/12/29 08:54:03;;;;;;;0.90;0.90;;;;;;;10.29;60.99;97405.06;4983583;28;20058;-66
2023/12/29 08:56:30;;;;;;;0.80;0.80;;;;;;;10.60;60.17;97413.34;4983910;28;20054;-67
2023/12/29 08:58:57;;;;;;;0.85;0.85;;;;;;;10.75;58.98;97397.81;4984494;28;20181;-73
2023/12/29 09:01:24;;;;;;;0.90;0.90;;;;;;;10.31;57.46;97333.53;4984701;28;20066;-62
2023/12/29 09:03:50;;;;;;;0.90;0.90;;;;;;;9.94;58.15;97284.41;4971302;28;20060;-62
2023/12/29 09:06:18;;;;;;;0.80;0.80;;;;;;;10.61;58.14;97401.06;4983834;28;20552;-65
2023/12/29 09:08:45;;;;;;;0.90;0.90;;;;;;;8.99;58.52;97105.19;4983118;28;20093;-65
2023/12/29 09:11:12;;;;;;;0.90;0.90;;;;;;;10.85;56.98;97394.47;4984427;28;20129;-61
2023/12/29 09:13:40;;;;;;;0.88;0.88;;;;;;;10.01;58.00;97342.66;4983900;28;20054;-63
2023/12/29 09:16:07;;;;;;;0.80;0.80;;;;;;;10.14;58.34;97392.06;4984353;28;20072;-61
2023/12/29 09:18:34;;;;;;;0.90;0.90;;;;;;;10.25;58.70;97387.59;4987339;28;20054;-63
2023/12/29 09:21:02;;;;;;;0.90;0.90;;;;;;;10.38;56.58;97380.78;4980519;28;20047;-62
2023/12/29 09:23:29;;;;;;;0.90;0.90;;;;;;;9.73;57.00;97298.53;4980307;28;20060;-64
2023/12/29 09:25:56;;;;;;;0.80;0.80;;;;;;;10.51;56.98;97345.47;4970868;28;20485;-63
2023/12/29 09:28:23;;;;;;;0.90;0.90;;;;;;;10.90;55.74;97377.56;4983937;28;20058;-60
2023/12/29 09:30:50;;;;;;;0.80;0.80;;;;;;;11.13;56.04;97355.47;4983484;28;20038;-61
2023/12/29 09:33:17;;;;;;;0.85;0.85;;;;;;;11.49;55.58;97369.63;4984460;28;20056;-60
2023/12/29 09:35:44;;;;;;;0.90;0.90;;;;;;;11.79;54.43;97365.03;4984089;28;20069;-61
2023/12/29 09:38:11;;;;;;;1.00;1.00;;;;;;;12.18;54.15;97362.91;4984743;28;20564;-60
2023/12/29 09:40:37;;;;;;;0.90;0.90;;;;;;;12.32;52.87;97346.47;4984250;28;20101;-60
2023/12/29 09:43:07;;;;;;;0.98;0.98;;;;;;;12.44;52.64;97337.91;4984239;28;20061;-61
2023/12/29 09:45:38;;;;;;;1.08;1.08;;;;;;;12.71;52.88;97350.59;4983892;28;20505;-62
2023/12/29 09:48:07;;;;;;;1.05;1.05;;;;;;;12.80;52.21;97331.69;4999033;28;20050;-60
2023/12/29 09:50:35;;;;;;;1.00;1.00;;;;;;;12.88;51.11;97347.25;4984255;28;20053;-61
2023/12/29 09:53:03;;;;;;;1.02;1.02;;;;;;;13.04;51.95;97342.31;4968847;28;20055;-61
2023/12/29 09:55:31;;;;;;;1.00;1.00;;;;;;;12.97;51.24;97321.94;4982010;28;20054;-60
2023/12/29 09:57:59;;;;;;;1.13;1.13;;;;;;;13.27;51.88;97340.22;4984336;28;20050;-61
2023/12/29 10:00:28;;;;;;;1.00;1.00;;;;;;;13.55;51.59;97326.59;4983995;28;20058;-59
2023/12/29 10:02:55;;;;;;;1.10;1.10;;;;;;;13.18;51.58;97253.47;4984322;28;20054;-59
2023/12/29 10:05:22;;;;;;;1.00;1.00;;;;;;;13.74;52.05;97344.28;4983977;28;20073;-62
2023/12/29 10:07:51;;;;;;;1.20;1.20;;;;;;;13.69;51.89;97325.91;4983842;28;20875;-61
2023/12/29 10:10:19;;;;;;;1.25;1.25;;;;;;;13.48;52.35;97320.94;4983797;28;20065;-59
2023/12/29 10:12:47;;;;;;;1.20;1.20;;;;;;;13.88;51.24;97328.47;4984165;28;20454;-61
2023/12/29 10:15:24;;;;;;;1.23;1.23;;;;;;;13.85;50.24;97317.34;4983954;28;20054;-60
2023/12/29 10:18:02;;;;;;;1.00;1.00;;;;;;;13.88;50.23;97311.78;4988276;28;20050;-60
2023/12/29 10:20:35;;;;;;;1.10;1.10;;;;;;;14.34;49.65;97312.16;4987918;28;20090;-60
2023/12/29 10:23:08;;;;;;;1.27;1.27;;;;;;;14.54;48.74;97305.13;4988605;28;20050;-60
2023/12/29 10:25:36;;;;;;;1.30;1.30;;;;;;;14.72;47.08;97295.66;4987624;28;20051;-60
2023/12/29 10:28:03;;;;;;;1.17;1.17;;;;;;;15.00;46.53;97292.19;4987903;28;20137;-60
2023/12/29 10:30:31;;;;;;;1.20;1.20;;;;;;;14.96;45.38;97297.75;5018653;28;20513;-62
2023/12/29 10:33:02;;;;;;;1.40;1.40;;;;;;;14.86;45.41;97241.91;4988029;28;20133;-62
2023/12/29 10:35:31;;;;;;;1.40;1.40;;;;;;;15.39;43.74;97293.13;5001893;28;20061;-61
2023/12/29 10:38:13;;;;;;;1.50;1.50;;;;;;;15.62;43.53;97281.59;4987424;28;20062;-60
2023/12/29 10:40:41;;;;;;;1.30;1.30;;;;;;;15.56;42.75;97232.91;4987326;28;20066;-62
2023/12/29 10:43:09;;;;;;;1.40;1.40;;;;;;;15.17;40.98;97274.72;4987597;28;20481;-61
2023/12/29 10:45:36;;;;;;;1.30;1.30;;;;;;;14.98;41.63;97208.09;4969186;28;20085;-60
2023/12/29 10:48:04;;;;;;;1.30;1.30;;;;;;;15.35;41.46;97241.25;4968560;28;20046;-62
2023/12/29 10:50:42;;;;;;;1.40;1.40;;;;;;;15.52;39.47;97266.44;4967991;28;20050;-60
2023/12/29 10:53:16;;;;;;;1.40;1.40;;;;;;;15.22;38.12;97190.63;4968456;28;20061;-61
2023/12/29 10:55:43;;;;;;;1.40;1.40;;;;;;;15.25;37.62;97184.22;4982452;28;20133;-60
2023/12/29 10:58:10;;;;;;;1.50;1.50;;;;;;;15.98;37.64;97247.69;4968240;28;20061;-60
2023/12/29 11:00:37;;;;;;;1.40;1.40;;;;;;;15.90;37.88;97243.28;4985609;28;20053;-61
2023/12/29 11:03:04;;;;;;;1.42;1.42;;;;;;;16.25;37.25;97248.84;4987267;28;20050;-62
2023/12/29 11:05:33;;;;;;;1.35;1.35;;;;;;;16.30;37.59;97237.25;4986790;28;20141;-61
2023/12/29 11:08:00;;;;;;;1.70;1.70;;;;;;;15.88;37.28;97223.34;4987226;28;20058;-60
2023/12/29 11:10:28;;;;;;;1.70;1.70;;;;;;;16.24;38.43;97236.06;4976339;28;20496;-60
2023/12/29 11:12:56;;;;;;;1.48;1.48;;;;;;;16.44;37.75;97231.66;4987130;28;20057;-61
2023/12/29 11:15:25;;;;;;;1.60;1.60;;;;;;;16.51;37.81;97206.47;5001591;28;20050;-60
2023/12/29 11:17:56;;;;;;;1.50;1.50;;;;;;;16.48;37.49;97218.47;5002200;28;20048;-60
2023/12/29 11:20:23;;;;;;;1.45;1.45;;;;;;;16.51;37.59;97222.44;4986832;28;20091;-59
2023/12/29 11:22:50;;;;;;;1.60;1.60;;;;;;;16.70;37.58;97218.38;4986765;28;20050;-60
2023/12/29 11:25:16;;;;;;;1.38;1.38;;;;;;;16.86;36.97;97218.72;4986422;28;20050;-60
2023/12/29 11:27:44;;;;;;;1.73;1.73;;;;;;;17.04;37.09;97216.63;4986563;28;20053;-59
2023/12/29 11:30:14;;;;;;;1.60;1.60;;;;;;;17.14;36.62;97210.16;4986520;28;20133;-60
2023/12/29 11:33:02;;;;;;;1.58;1.58;;;;;;;16.96;36.24;97198.28;4986782;28;20506;-60
2023/12/29 11:35:51;;;;;;;1.50;1.50;;;;;;;17.15;36.89;97197.78;4986277;28;20086;-60
2023/12/29 11:38:17;;;;;;;1.45;1.45;;;;;;;17.18;36.51;97199.75;4986907;28;20058;-61
2023/12/29 11:40:49;;;;;;;1.67;1.67;;;;;;;16.98;36.90;97184.66;5001428;28;20046;-61